Time;durP1;ratioP1;P1;durP2;ratioP2;P2;SDS_P1;SDS_P2;PMS_P1;PMS_P2;Temp;Humidity;BMP_temperature;BMP_pressure;BME280_temperature;BME280_humidity;BME280_pressure;Samples;Min_cycle;Max_cycle;Signal;HPM_P1;HPM_P2
2022/07/27 00:01:28;;;;;;;5.18;2.42;;;14.70;99.90;;;;;;4974826;28;20062;-58
2022/07/27 00:03:54;;;;;;;6.07;2.67;;;14.60;99.90;;;;;;4973118;28;20042;-58
2022/07/27 00:06:20;;;;;;;5.50;2.88;;;14.60;99.90;;;;;;4979217;28;20023;-58
2022/07/27 00:08:45;;;;;;;8.98;2.75;;;14.50;99.90;;;;;;4975732;28;20130;-58
2022/07/27 00:11:11;;;;;;;6.13;2.97;;;14.50;99.90;;;;;;4966003;28;20062;-57
2022/07/27 00:13:37;;;;;;;11.13;3.22;;;14.50;99.90;;;;;;4966712;28;20114;-58
2022/07/27 00:16:03;;;;;;;8.57;2.90;;;14.40;99.90;;;;;;4975706;28;20043;-59
2022/07/27 00:18:29;;;;;;;9.48;3.00;;;14.40;99.90;;;;;;4975054;28;20034;-58
2022/07/27 00:20:54;;;;;;;10.32;2.45;;;14.40;99.90;;;;;;4969620;28;20039;-58
2022/07/27 00:23:20;;;;;;;7.18;2.70;;;14.40;99.90;;;;;;5002265;28;20031;-58
2022/07/27 00:25:46;;;;;;;9.82;2.55;;;14.40;99.90;;;;;;4969672;28;20771;-59
2022/07/27 00:28:11;;;;;;;6.32;2.60;;;14.40;99.90;;;;;;4972303;28;20105;-58
2022/07/27 00:30:37;;;;;;;9.05;2.50;;;14.40;99.90;;;;;;4974345;28;20047;-59
2022/07/27 00:33:04;;;;;;;12.52;2.47;;;14.40;99.90;;;;;;4974656;28;20035;-58
2022/07/27 00:35:30;;;;;;;9.65;3.03;;;14.40;99.90;;;;;;4970515;28;20122;-58
2022/07/27 00:37:56;;;;;;;8.60;3.13;;;14.40;99.90;;;;;;4978848;28;20344;-59
2022/07/27 00:40:22;;;;;;;6.85;2.92;;;14.40;99.90;;;;;;4970984;28;20505;-58
2022/07/27 00:42:47;;;;;;;9.52;2.30;;;14.40;99.90;;;;;;4965433;28;20031;-58
2022/07/27 00:45:13;;;;;;;5.18;2.45;;;14.40;99.90;;;;;;4972272;28;20037;-59
2022/07/27 00:47:39;;;;;;;6.00;2.58;;;14.30;99.90;;;;;;4976672;28;20041;-59
2022/07/27 00:50:05;;;;;;;11.60;2.17;;;14.30;99.90;;;;;;4968366;28;20081;-57
2022/07/27 00:52:31;;;;;;;5.95;1.95;;;14.30;99.90;;;;;;4980490;28;20371;-58
2022/07/27 00:54:58;;;;;;;8.63;2.45;;;14.30;99.90;;;;;;4973136;28;20042;-58
2022/07/27 00:57:25;;;;;;;6.97;2.17;;;14.30;99.90;;;;;;4980652;28;20030;-58
2022/07/27 00:59:52;;;;;;;6.13;2.17;;;14.30;99.90;;;;;;4972303;28;20030;-58
2022/07/27 01:02:17;;;;;;;5.55;1.75;;;14.20;99.90;;;;;;4976249;28;20031;-58
2022/07/27 01:04:43;;;;;;;6.10;1.88;;;14.20;99.90;;;;;;4978340;28;20041;-58
2022/07/27 01:07:10;;;;;;;5.53;1.83;;;14.20;99.90;;;;;;4968958;28;20097;-59
2022/07/27 01:12:21;;;;;;;6.68;1.60;;;14.20;99.90;;;;;;4980156;28;20501;-58
2022/07/27 01:14:48;;;;;;;5.63;1.88;;;14.20;99.90;;;;;;4979145;28;20026;-59
2022/07/27 01:17:15;;;;;;;6.20;1.75;;;14.20;99.90;;;;;;4973867;28;20039;-58
2022/07/27 01:19:41;;;;;;;5.63;1.60;;;14.20;99.90;;;;;;4977359;28;20030;-58
2022/07/27 01:22:07;;;;;;;8.60;1.85;;;14.20;99.90;;;;;;4975555;28;20042;-58
2022/07/27 01:24:34;;;;;;;5.20;2.17;;;14.20;99.90;;;;;;4973724;28;20062;-58
2022/07/27 01:27:01;;;;;;;4.25;1.50;;;14.20;99.90;;;;;;4975128;28;20053;-58
2022/07/27 01:29:28;;;;;;;10.52;2.25;;;14.20;99.90;;;;;;4975367;28;20049;-59
2022/07/27 01:31:54;;;;;;;4.60;2.00;;;14.30;99.90;;;;;;4976213;28;20034;-58
2022/07/27 01:34:21;;;;;;;6.85;1.70;;;14.20;99.90;;;;;;4973901;28;20073;-58
2022/07/27 01:36:46;;;;;;;4.45;1.73;;;14.20;99.90;;;;;;4974448;28;20490;-58
2022/07/27 01:39:13;;;;;;;7.60;1.90;;;14.20;99.90;;;;;;4981894;28;20082;-58
2022/07/27 01:41:39;;;;;;;11.30;2.03;;;14.20;99.90;;;;;;4972926;28;20048;-59
2022/07/27 01:44:05;;;;;;;7.55;1.75;;;14.30;99.90;;;;;;4978221;28;20479;-58
2022/07/27 01:46:30;;;;;;;7.22;2.05;;;14.30;99.90;;;;;;4973373;28;20090;-59
2022/07/27 01:48:56;;;;;;;7.60;2.03;;;14.40;99.90;;;;;;4979095;28;20117;-58
2022/07/27 01:51:22;;;;;;;8.15;1.65;;;14.40;99.90;;;;;;4973391;28;20053;-58
2022/07/27 01:53:47;;;;;;;7.50;1.88;;;14.50;99.90;;;;;;4973713;28;20035;-58
2022/07/27 01:56:13;;;;;;;6.05;1.88;;;14.50;99.90;;;;;;4972146;28;20499;-58
2022/07/27 01:58:41;;;;;;;10.15;2.40;;;14.50;99.90;;;;;;4980091;28;20427;-59
2022/07/27 02:01:07;;;;;;;7.47;2.22;;;14.60;99.90;;;;;;4971631;28;20035;-59
2022/07/27 02:03:34;;;;;;;4.97;1.98;;;14.60;99.90;;;;;;4975348;28;20145;-59
2022/07/27 02:06:00;;;;;;;5.68;2.38;;;14.60;99.90;;;;;;4971159;28;20057;-59
2022/07/27 02:08:25;;;;;;;4.32;2.25;;;14.60;99.90;;;;;;4972535;28;20031;-59
2022/07/27 02:13:36;;;;;;;5.70;2.00;;;14.60;99.90;;;;;;4973204;28;20142;-59
2022/07/27 02:16:02;;;;;;;8.07;1.63;;;14.60;99.90;;;;;;4972761;28;20554;-59
2022/07/27 02:18:27;;;;;;;5.93;2.22;;;14.60;99.90;;;;;;4973043;28;20360;-58
2022/07/27 02:20:53;;;;;;;4.43;2.15;;;14.60;99.90;;;;;;4980887;28;20081;-58
2022/07/27 02:23:19;;;;;;;6.25;2.20;;;14.60;99.90;;;;;;4978649;28;20518;-58
2022/07/27 02:25:45;;;;;;;7.18;1.90;;;14.60;99.90;;;;;;4971146;28;20041;-58
2022/07/27 02:28:10;;;;;;;6.43;1.92;;;14.60;99.90;;;;;;4974266;28;20034;-58
2022/07/27 02:30:36;;;;;;;5.28;2.47;;;14.60;99.90;;;;;;4972421;28;20051;-58
2022/07/27 02:33:02;;;;;;;9.95;1.73;;;14.50;99.90;;;;;;4974986;28;20023;-58
2022/07/27 02:35:28;;;;;;;11.93;2.20;;;14.50;99.90;;;;;;4972537;28;20038;-59
2022/07/27 02:37:54;;;;;;;8.30;2.30;;;14.50;99.90;;;;;;4974909;28;20069;-59
2022/07/27 02:40:19;;;;;;;12.43;2.83;;;14.50;99.90;;;;;;4978022;28;20062;-59
2022/07/27 02:42:46;;;;;;;9.88;2.72;;;14.40;99.90;;;;;;4980749;28;20022;-58
2022/07/27 02:45:13;;;;;;;9.85;1.88;;;14.40;99.90;;;;;;4978414;28;20027;-58
2022/07/27 02:47:39;;;;;;;6.85;2.20;;;14.30;99.90;;;;;;4983218;28;20018;-58
2022/07/27 02:50:06;;;;;;;3.90;1.98;;;14.20;99.90;;;;;;4978347;28;20190;-58
2022/07/27 02:52:32;;;;;;;9.57;2.20;;;14.10;99.90;;;;;;4978248;28;20510;-58
2022/07/27 02:54:57;;;;;;;7.15;1.90;;;14.10;99.90;;;;;;4975706;28;20125;-58
2022/07/27 02:57:23;;;;;;;5.82;2.03;;;14.10;99.90;;;;;;4973359;28;20113;-58
2022/07/27 02:59:49;;;;;;;6.72;2.45;;;14.10;99.90;;;;;;4975061;28;20123;-58
2022/07/27 03:02:14;;;;;;;13.82;2.17;;;14.10;99.90;;;;;;4972246;28;20502;-59
2022/07/27 03:04:40;;;;;;;4.40;2.22;;;14.10;99.90;;;;;;4971371;28;20046;-59
2022/07/27 03:07:07;;;;;;;8.55;2.10;;;14.00;99.90;;;;;;4974364;28;20041;-59
2022/07/27 03:09:33;;;;;;;5.60;2.30;;;14.00;99.90;;;;;;4973659;28;20387;-60
2022/07/27 03:11:59;;;;;;;5.65;2.25;;;13.90;99.90;;;;;;4979281;28;20030;-60
2022/07/27 03:14:25;;;;;;;8.93;2.42;;;13.80;99.90;;;;;;4971273;28;20546;-60
2022/07/27 03:16:50;;;;;;;9.05;2.58;;;13.80;99.90;;;;;;4974338;28;20122;-60
2022/07/27 03:19:16;;;;;;;8.50;1.95;;;13.80;99.90;;;;;;4979304;28;20116;-59
2022/07/27 03:21:42;;;;;;;7.68;2.10;;;13.70;99.90;;;;;;4974893;28;20027;-59
2022/07/27 03:24:07;;;;;;;8.98;2.03;;;13.60;99.90;;;;;;4972154;28;20081;-59
2022/07/27 03:26:33;;;;;;;8.18;1.83;;;13.60;99.90;;;;;;4967423;28;20058;-59
2022/07/27 03:28:59;;;;;;;6.13;1.90;;;13.60;99.90;;;;;;4973562;28;20134;-59
2022/07/27 03:31:25;;;;;;;6.82;1.80;;;13.60;99.90;;;;;;4977501;28;20556;-59
2022/07/27 03:33:50;;;;;;;11.50;1.95;;;13.60;99.90;;;;;;4975161;28;20027;-59
2022/07/27 03:36:16;;;;;;;5.03;1.77;;;13.60;99.90;;;;;;4970439;28;20089;-59
2022/07/27 03:38:41;;;;;;;8.23;2.17;;;13.60;99.90;;;;;;4973211;28;20038;-59
2022/07/27 03:41:07;;;;;;;3.50;1.83;;;13.70;99.90;;;;;;4973910;28;20046;-59
2022/07/27 03:43:34;;;;;;;5.93;1.80;;;13.80;99.90;;;;;;5011517;22;20045;-57
2022/07/27 03:46:00;;;;;;;6.75;1.98;;;13.80;99.90;;;;;;5012995;28;20052;-58
2022/07/27 03:48:26;;;;;;;6.07;1.83;;;13.80;99.90;;;;;;5017291;28;20029;-58
2022/07/27 03:50:52;;;;;;;11.60;2.53;;;13.80;99.90;;;;;;5007202;28;20037;-57
2022/07/27 03:53:20;;;;;;;12.18;2.55;;;13.90;99.90;;;;;;5011322;28;20032;-57
2022/07/27 03:55:49;;;;;;;9.20;2.30;;;14.00;99.90;;;;;;5009519;28;20398;-58
2022/07/27 03:58:16;;;;;;;8.60;2.60;;;13.90;99.90;;;;;;5009076;28;20045;-57
2022/07/27 04:00:42;;;;;;;6.65;2.08;;;13.90;99.90;;;;;;5019335;28;20072;-57
2022/07/27 04:03:08;;;;;;;6.10;2.50;;;14.00;99.90;;;;;;5007192;28;20496;-58
2022/07/27 04:05:34;;;;;;;11.88;2.92;;;14.10;99.90;;;;;;5021062;28;20061;-57
2022/07/27 04:07:59;;;;;;;6.97;2.97;;;14.10;99.90;;;;;;5009141;28;20105;-58
2022/07/27 04:10:25;;;;;;;7.53;2.20;;;14.10;99.90;;;;;;5017951;28;20061;-58
2022/07/27 04:12:51;;;;;;;7.88;2.08;;;14.20;99.90;;;;;;5014295;28;20470;-57
2022/07/27 04:15:17;;;;;;;5.65;2.55;;;14.20;99.90;;;;;;5015871;28;20037;-58
2022/07/27 04:17:44;;;;;;;4.32;1.80;;;14.20;99.90;;;;;;5011208;28;20022;-57
2022/07/27 04:20:10;;;;;;;7.07;2.20;;;14.30;99.90;;;;;;5017967;28;20038;-57
2022/07/27 04:22:36;;;;;;;7.40;2.42;;;14.30;99.90;;;;;;5009560;28;20087;-58
2022/07/27 04:25:02;;;;;;;14.50;2.33;;;14.40;99.90;;;;;;5008637;28;20541;-57
2022/07/27 04:27:27;;;;;;;6.13;1.55;;;14.50;99.90;;;;;;5014356;28;20083;-57
2022/07/27 04:29:53;;;;;;;5.53;1.70;;;14.50;99.90;;;;;;5007843;28;20026;-57
2022/07/27 04:32:19;;;;;;;4.97;1.90;;;14.60;99.90;;;;;;5012698;28;20033;-57
2022/07/27 04:34:44;;;;;;;10.27;2.45;;;14.60;99.90;;;;;;5011980;28;20026;-57
2022/07/27 04:37:10;;;;;;;10.85;2.60;;;14.60;99.90;;;;;;5017078;28;20033;-57
2022/07/27 04:39:36;;;;;;;8.75;2.00;;;14.60;99.90;;;;;;5016108;28;20026;-57
2022/07/27 04:42:01;;;;;;;6.18;2.35;;;14.60;99.90;;;;;;4996009;28;20041;-57
2022/07/27 04:44:27;;;;;;;8.55;2.05;;;14.60;99.90;;;;;;5008761;28;20042;-58
2022/07/27 04:46:53;;;;;;;7.60;2.08;;;14.60;99.90;;;;;;5018224;28;20111;-58
2022/07/27 04:49:18;;;;;;;9.18;2.08;;;14.70;99.90;;;;;;5019462;28;20392;-58
2022/07/27 04:51:45;;;;;;;9.75;2.33;;;14.70;99.90;;;;;;5008660;28;20109;-58
2022/07/27 04:54:11;;;;;;;7.70;2.03;;;14.80;99.90;;;;;;5012276;28;20498;-58
2022/07/27 04:56:37;;;;;;;5.75;1.88;;;14.80;99.90;;;;;;5010565;28;20033;-58
2022/07/27 04:59:03;;;;;;;9.40;1.77;;;14.80;99.90;;;;;;5012344;28;20048;-58
2022/07/27 05:01:28;;;;;;;7.20;2.00;;;14.90;99.90;;;;;;5007708;28;20025;-57
2022/07/27 05:03:54;;;;;;;7.05;1.60;;;14.90;99.90;;;;;;5002749;28;20029;-58
2022/07/27 05:06:20;;;;;;;7.50;1.38;;;15.00;99.90;;;;;;5009371;28;20026;-57
2022/07/27 05:08:45;;;;;;;3.80;1.20;;;15.10;99.90;;;;;;5014413;28;20386;-58
2022/07/27 05:11:11;;;;;;;9.63;2.10;;;15.20;99.90;;;;;;5008840;28;20026;-58
2022/07/27 05:13:41;;;;;;;13.27;3.13;;;15.20;99.90;;;;;;5009115;28;20389;-59
2022/07/27 05:16:10;;;;;;;7.35;1.58;;;15.30;99.90;;;;;;5010980;28;20406;-58
2022/07/27 05:18:36;;;;;;;5.55;1.60;;;15.30;99.90;;;;;;5011469;28;20037;-59
2022/07/27 05:21:03;;;;;;;6.97;1.95;;;15.30;99.90;;;;;;5011694;28;20123;-58
2022/07/27 05:23:29;;;;;;;3.70;1.27;;;15.30;99.90;;;;;;5007032;28;20037;-58
2022/07/27 05:25:54;;;;;;;6.93;2.10;;;15.40;99.90;;;;;;5014901;28;20038;-58
2022/07/27 05:28:20;;;;;;;9.73;1.70;;;15.40;99.90;;;;;;5008460;28;20470;-58
2022/07/27 05:30:46;;;;;;;7.25;1.90;;;15.40;99.90;;;;;;5008686;28;20033;-57
2022/07/27 05:33:11;;;;;;;20.55;2.83;;;15.30;99.90;;;;;;5013305;28;20038;-57
2022/07/27 05:35:37;;;;;;;13.88;2.60;;;15.30;99.90;;;;;;5011233;28;20076;-58
2022/07/27 05:38:03;;;;;;;11.57;2.45;;;15.30;99.90;;;;;;5012698;28;20498;-58
2022/07/27 05:40:29;;;;;;;9.18;3.00;;;15.30;99.90;;;;;;5008198;28;20041;-58
2022/07/27 05:42:55;;;;;;;9.50;2.65;;;15.30;99.90;;;;;;5013741;28;20038;-58
2022/07/27 05:45:21;;;;;;;12.45;2.35;;;15.30;99.90;;;;;;5014251;28;20485;-59
2022/07/27 05:47:47;;;;;;;9.18;2.65;;;15.30;99.90;;;;;;5020133;28;20032;-58
2022/07/27 05:50:13;;;;;;;16.05;2.50;;;15.40;99.90;;;;;;5014888;28;20033;-58
2022/07/27 05:52:38;;;;;;;13.23;2.00;;;15.50;99.90;;;;;;5021032;28;20477;-58
2022/07/27 05:55:05;;;;;;;11.20;2.33;;;15.50;99.90;;;;;;5012519;28;20041;-58
2022/07/27 05:57:32;;;;;;;6.72;2.00;;;15.50;99.90;;;;;;5024682;28;20036;-58
2022/07/27 05:59:59;;;;;;;10.65;2.03;;;15.50;99.90;;;;;;5020416;28;20366;-58
2022/07/27 06:02:26;;;;;;;8.63;1.83;;;15.60;99.90;;;;;;5013763;28;20026;-58
2022/07/27 06:04:53;;;;;;;8.48;1.63;;;15.70;99.90;;;;;;5012040;28;20034;-58
2022/07/27 06:10:03;;;;;;;8.80;1.95;;;15.90;99.90;;;;;;5008580;28;20041;-59
2022/07/27 06:12:29;;;;;;;7.97;1.90;;;16.00;99.90;;;;;;5010667;28;20022;-58
2022/07/27 06:14:55;;;;;;;7.85;2.05;;;16.10;99.90;;;;;;5017687;28;20041;-57
2022/07/27 06:17:20;;;;;;;6.28;1.92;;;16.10;99.90;;;;;;5012071;28;20058;-57
2022/07/27 06:19:46;;;;;;;6.30;1.90;;;16.20;99.90;;;;;;5020638;28;20124;-58
2022/07/27 06:22:11;;;;;;;6.95;2.60;;;16.30;99.90;;;;;;5024062;28;20033;-61
2022/07/27 06:24:37;;;;;;;4.88;1.90;;;16.30;99.90;;;;;;5011186;28;20414;-57
2022/07/27 06:27:03;;;;;;;14.13;2.40;;;16.40;99.90;;;;;;5009570;28;20053;-58
2022/07/27 06:29:28;;;;;;;8.38;2.05;;;16.50;99.90;;;;;;5020014;28;20026;-58
2022/07/27 06:31:54;;;;;;;8.93;3.03;;;16.60;99.90;;;;;;5019694;28;20026;-58
2022/07/27 06:34:20;;;;;;;7.75;2.42;;;16.80;99.90;;;;;;5019281;28;20474;-58
2022/07/27 06:36:45;;;;;;;5.85;2.15;;;17.00;99.90;;;;;;5019285;28;20044;-58
2022/07/27 06:39:12;;;;;;;3.28;1.70;;;17.10;99.90;;;;;;5019545;28;20121;-57
2022/07/27 06:41:37;;;;;;;5.22;1.20;;;17.20;99.90;;;;;;5016936;28;20030;-58
2022/07/27 06:44:03;;;;;;;10.07;1.90;;;17.30;99.90;;;;;;5013679;28;20053;-60
2022/07/27 06:46:29;;;;;;;5.22;1.70;;;17.40;99.90;;;;;;5004475;28;20076;-58
2022/07/27 06:48:55;;;;;;;8.43;1.75;;;17.50;99.90;;;;;;5011980;28;20058;-58
2022/07/27 06:51:24;;;;;;;6.22;1.45;;;17.50;99.90;;;;;;5008796;28;20116;-58
2022/07/27 06:53:53;;;;;;;7.47;1.88;;;17.60;99.90;;;;;;5003833;28;20021;-58
2022/07/27 06:56:20;;;;;;;5.95;1.30;;;17.70;99.90;;;;;;5011001;28;20117;-58
2022/07/27 06:58:45;;;;;;;5.32;1.83;;;17.80;99.90;;;;;;5002578;28;20029;-57
2022/07/27 07:01:13;;;;;;;7.85;1.30;;;17.80;99.90;;;;;;5009189;28;20125;-57
2022/07/27 07:03:39;;;;;;;8.63;1.38;;;17.80;99.90;;;;;;5005738;28;20022;-57
2022/07/27 07:06:05;;;;;;;6.50;1.90;;;17.80;99.90;;;;;;5006029;28;20586;-58
2022/07/27 07:08:30;;;;;;;7.25;1.50;;;17.90;99.90;;;;;;5001764;28;20547;-58
2022/07/27 07:10:56;;;;;;;5.55;1.20;;;17.80;99.90;;;;;;5010004;28;20038;-59
2022/07/27 07:13:22;;;;;;;5.50;1.08;;;17.90;99.90;;;;;;5007576;28;20028;-58
2022/07/27 07:15:48;;;;;;;8.48;1.40;;;17.90;99.90;;;;;;5009960;28;20042;-58
2022/07/27 07:18:14;;;;;;;5.82;2.05;;;17.90;99.90;;;;;;5009727;28;20116;-58
2022/07/27 07:20:40;;;;;;;10.93;1.33;;;17.90;99.90;;;;;;5012308;28;20065;-58
2022/07/27 07:23:06;;;;;;;6.47;1.50;;;18.00;99.90;;;;;;5011539;28;20481;-58
2022/07/27 07:25:33;;;;;;;9.05;2.10;;;18.00;99.90;;;;;;5010014;28;20021;-58
2022/07/27 07:27:59;;;;;;;6.90;1.48;;;18.10;99.90;;;;;;5008400;28;20057;-59
2022/07/27 07:30:26;;;;;;;9.45;1.65;;;18.20;99.90;;;;;;5002863;28;20097;-59
2022/07/27 07:32:51;;;;;;;7.75;1.20;;;18.30;99.90;;;;;;5006170;28;20355;-59
2022/07/27 07:35:18;;;;;;;5.60;1.00;;;18.40;99.90;;;;;;5008432;28;20052;-58
2022/07/27 07:37:43;;;;;;;5.88;2.10;;;18.50;99.90;;;;;;5008928;28;20104;-58
2022/07/27 07:40:10;;;;;;;5.82;1.40;;;18.60;99.90;;;;;;5010303;28;20485;-58
2022/07/27 07:42:55;;;;;;;4.90;0.85;;;18.60;99.90;;;;;;5011691;28;20030;-58
2022/07/27 07:45:22;;;;;;;4.75;1.10;;;18.70;99.90;;;;;;5009063;28;20034;-58
2022/07/27 07:47:48;;;;;;;5.95;0.80;;;18.60;99.90;;;;;;5009287;28;20438;-58
2022/07/27 07:50:14;;;;;;;5.82;1.00;;;18.80;99.90;;;;;;5002086;28;20478;-58
2022/07/27 07:52:40;;;;;;;3.55;1.00;;;19.00;99.90;;;;;;5017048;28;20025;-58
2022/07/27 07:55:06;;;;;;;7.10;1.40;;;19.20;99.90;;;;;;5008616;28;20099;-58
2022/07/27 07:57:32;;;;;;;4.65;0.85;;;19.30;99.90;;;;;;5017586;28;20033;-58
2022/07/27 07:59:57;;;;;;;4.43;0.90;;;19.50;99.90;;;;;;5005267;28;20363;-58
2022/07/27 08:02:23;;;;;;;4.85;1.08;;;19.50;99.90;;;;;;5005843;28;20069;-58
2022/07/27 08:04:48;;;;;;;2.10;0.77;;;19.70;99.90;;;;;;5007372;28;20038;-58
2022/07/27 08:07:14;;;;;;;5.47;0.73;;;19.90;99.90;;;;;;5010995;28;20040;-58
2022/07/27 08:09:40;;;;;;;4.13;0.65;;;19.90;99.90;;;;;;5014649;28;20087;-58
2022/07/27 08:12:05;;;;;;;2.67;0.70;;;20.00;99.90;;;;;;5009994;28;20058;-58
2022/07/27 08:14:32;;;;;;;3.95;1.17;;;19.90;99.90;;;;;;5010592;28;20026;-58
2022/07/27 08:16:58;;;;;;;1.20;0.65;;;19.90;99.90;;;;;;5016427;28;20116;-58
2022/07/27 08:19:24;;;;;;;4.35;1.08;;;20.00;99.90;;;;;;5012435;28;20113;-57
2022/07/27 08:21:49;;;;;;;2.30;0.98;;;20.00;99.90;;;;;;5011301;28;20041;-59
2022/07/27 08:24:15;;;;;;;3.00;0.85;;;20.20;99.90;;;;;;5009108;28;20113;-59
2022/07/27 08:26:41;;;;;;;3.15;0.80;;;20.20;99.90;;;;;;5009342;28;20025;-59
2022/07/27 08:29:07;;;;;;;4.97;1.10;;;20.30;99.90;;;;;;5005255;28;20116;-58
2022/07/27 08:31:32;;;;;;;7.10;1.17;;;20.30;99.90;;;;;;5008495;28;20037;-58
2022/07/27 08:33:58;;;;;;;1.20;0.45;;;20.50;99.90;;;;;;5006292;28;20433;-58
2022/07/27 08:36:24;;;;;;;1.75;0.80;;;20.60;99.90;;;;;;5013483;28;20124;-58
2022/07/27 08:38:49;;;;;;;4.10;0.82;;;20.70;99.90;;;;;;5005313;28;20034;-58
2022/07/27 08:41:17;;;;;;;2.92;0.88;;;20.80;99.90;;;;;;5007914;28;20084;-58
2022/07/27 08:43:46;;;;;;;2.70;0.50;;;20.90;99.90;;;;;;5011250;28;20049;-58
2022/07/27 08:46:13;;;;;;;2.90;1.05;;;20.80;99.90;;;;;;5000496;28;20053;-57
2022/07/27 08:48:40;;;;;;;3.10;0.88;;;20.80;99.90;;;;;;5008299;28;20046;-59
2022/07/27 08:51:06;;;;;;;3.92;1.02;;;20.90;99.90;;;;;;5006226;28;20828;-58
2022/07/27 08:53:33;;;;;;;1.67;0.80;;;21.00;99.90;;;;;;5008287;28;20037;-58
2022/07/27 08:55:59;;;;;;;3.67;0.88;;;21.30;99.90;;;;;;5008497;28;20104;-58
2022/07/27 08:58:25;;;;;;;5.22;0.95;;;21.30;99.90;;;;;;5013782;28;20531;-59
2022/07/27 09:00:51;;;;;;;3.17;0.95;;;21.50;99.90;;;;;;5005508;28;20037;-59
2022/07/27 09:03:20;;;;;;;2.50;0.77;;;21.80;99.90;;;;;;5007578;28;20033;-59
2022/07/27 09:05:54;;;;;;;2.42;0.77;;;21.80;99.90;;;;;;5008123;28;20113;-57
2022/07/27 09:08:26;;;;;;;3.90;0.80;;;22.00;99.90;;;;;;5008015;28;20025;-58
2022/07/27 09:10:54;;;;;;;2.92;1.00;;;21.90;99.90;;;;;;5010579;28;20109;-58
2022/07/27 09:13:32;;;;;;;2.03;0.75;;;21.80;99.90;;;;;;5013470;28;20545;-59
2022/07/27 09:16:08;;;;;;;3.30;0.65;;;21.80;99.90;;;;;;5006514;28;20048;-59
2022/07/27 09:18:38;;;;;;;3.35;0.50;;;21.90;99.90;;;;;;5017980;28;20133;-58
2022/07/27 09:21:23;;;;;;;1.77;0.80;;;21.80;99.90;;;;;;5015786;28;20104;-58
2022/07/27 09:23:50;;;;;;;1.88;0.65;;;21.60;99.90;;;;;;5021645;28;20485;-58
2022/07/27 09:26:18;;;;;;;2.83;1.05;;;21.60;99.90;;;;;;5014085;28;20026;-58
2022/07/27 09:28:44;;;;;;;2.53;1.08;;;21.70;99.90;;;;;;5012669;28;20018;-58
2022/07/27 09:31:15;;;;;;;3.05;0.80;;;21.80;99.90;;;;;;5018665;28;20535;-57
2022/07/27 09:33:51;;;;;;;3.40;1.10;;;21.70;99.90;;;;;;5016049;28;20018;-57
2022/07/27 09:36:21;;;;;;;2.85;1.05;;;21.70;99.90;;;;;;5007888;28;20077;-58
2022/07/27 09:39:04;;;;;;;6.15;1.20;;;21.80;99.90;;;;;;5014516;28;20041;-58
2022/07/27 09:41:50;;;;;;;5.00;1.08;;;21.80;99.90;;;;;;5005028;28;20109;-58
2022/07/27 09:44:17;;;;;;;4.47;1.00;;;21.70;99.90;;;;;;5013562;28;20046;-59
2022/07/27 09:46:45;;;;;;;3.30;0.70;;;21.40;99.90;;;;;;5004529;28;20088;-58
2022/07/27 09:49:32;;;;;;;5.22;0.80;;;21.40;99.90;;;;;;5010101;28;20533;-58
2022/07/27 09:52:00;;;;;;;5.43;1.05;;;21.30;99.90;;;;;;5013724;28;20061;-57
2022/07/27 09:54:26;;;;;;;3.53;0.70;;;21.40;99.90;;;;;;5014535;28;20022;-58
2022/07/27 09:57:00;;;;;;;2.03;0.57;;;21.50;99.90;;;;;;5006971;28;20046;-56
2022/07/27 09:59:26;;;;;;;2.70;0.80;;;21.40;99.90;;;;;;5014182;28;20041;-59
2022/07/27 10:01:54;;;;;;;4.35;0.90;;;21.40;99.90;;;;;;5002311;28;20018;-58
2022/07/27 10:04:21;;;;;;;5.65;0.80;;;21.50;99.90;;;;;;5003672;28;20073;-58
2022/07/27 10:06:47;;;;;;;2.97;0.73;;;21.60;99.90;;;;;;5020081;28;20105;-58
2022/07/27 10:09:13;;;;;;;2.50;1.30;;;21.60;99.90;;;;;;5008840;28;20121;-58
2022/07/27 10:11:39;;;;;;;4.65;1.33;;;21.60;99.90;;;;;;5012566;28;20034;-58
2022/07/27 10:14:05;;;;;;;3.00;1.13;;;21.60;99.90;;;;;;5012776;28;20441;-58
2022/07/27 10:16:33;;;;;;;4.18;1.00;;;21.50;99.90;;;;;;5019596;28;20037;-58
2022/07/27 10:19:04;;;;;;;6.28;0.85;;;21.70;99.90;;;;;;5014192;28;20034;-59
2022/07/27 10:21:31;;;;;;;4.40;0.98;;;22.00;99.90;;;;;;5008237;28;20038;-59
2022/07/27 10:23:59;;;;;;;3.65;0.95;;;22.00;99.90;;;;;;5010637;28;20045;-58
2022/07/27 10:26:25;;;;;;;2.28;0.55;;;22.10;99.90;;;;;;5005822;28;20030;-59
2022/07/27 10:28:55;;;;;;;1.92;1.05;;;22.00;99.90;;;;;;5009184;28;20033;-58
2022/07/27 10:31:26;;;;;;;4.15;0.70;;;22.00;99.90;;;;;;5010369;28;20056;-58
2022/07/27 10:33:54;;;;;;;3.88;0.80;;;22.20;99.90;;;;;;5002326;28;20026;-59
2022/07/27 10:36:22;;;;;;;2.35;0.70;;;22.40;99.90;;;;;;5008450;28;20099;-59
2022/07/27 10:38:55;;;;;;;3.47;0.80;;;22.40;99.90;;;;;;5008312;28;20033;-59
2022/07/27 10:41:32;;;;;;;7.32;1.08;;;22.60;99.90;;;;;;5010137;28;20393;-58
2022/07/27 10:44:13;;;;;;;1.40;0.70;;;22.70;99.90;;;;;;5008630;28;20196;-59
2022/07/27 10:46:44;;;;;;;2.38;0.80;;;22.80;99.90;;;;;;5006870;28;20040;-58
2022/07/27 10:49:26;;;;;;;2.03;0.88;;;22.70;99.90;;;;;;5008316;28;20045;-60
2022/07/27 10:51:53;;;;;;;4.25;0.50;;;22.60;99.90;;;;;;5002528;28;20463;-58
2022/07/27 10:54:26;;;;;;;6.38;1.00;;;22.60;99.90;;;;;;5005900;28;20470;-58
2022/07/27 10:56:54;;;;;;;3.75;0.80;;;22.60;99.90;;;;;;5003381;28;20479;-59
2022/07/27 10:59:38;;;;;;;3.22;0.90;;;22.90;99.90;;;;;;5008526;28;20061;-60
2022/07/27 11:02:09;;;;;;;1.67;0.95;;;23.50;99.90;;;;;;5003893;28;20036;-60
2022/07/27 11:04:43;;;;;;;1.95;1.25;;;23.90;99.90;;;;;;5008538;28;20517;-60
2022/07/27 11:07:09;;;;;;;2.75;0.70;;;23.90;99.40;;;;;;5007936;28;20030;-59
2022/07/27 11:09:40;;;;;;;5.85;0.98;;;24.00;99.30;;;;;;5009477;28;20414;-63
2022/07/27 11:12:07;;;;;;;2.78;0.65;;;24.00;99.60;;;;;;5006635;28;20120;-58
2022/07/27 11:14:45;;;;;;;3.08;0.60;;;24.20;99.70;;;;;;5010400;28;20048;-60
2022/07/27 11:17:10;;;;;;;5.05;1.08;;;24.00;99.10;;;;;;5012407;28;20474;-58
2022/07/27 11:19:36;;;;;;;4.07;1.10;;;24.00;99.30;;;;;;5011124;28;20046;-58
2022/07/27 11:22:02;;;;;;;4.25;0.93;;;24.40;99.30;;;;;;5008779;28;20044;-58
2022/07/27 11:24:28;;;;;;;3.22;1.20;;;24.10;98.20;;;;;;5012306;28;20125;-57
2022/07/27 11:26:54;;;;;;;4.22;1.00;;;24.10;98.40;;;;;;5008271;28;20053;-58
2022/07/27 11:29:23;;;;;;;2.75;0.60;;;24.30;97.40;;;;;;5013197;28;20025;-61
2022/07/27 11:31:53;;;;;;;2.42;0.40;;;24.70;95.50;;;;;;5007768;28;20033;-59
2022/07/27 11:34:29;;;;;;;3.85;0.68;;;25.40;94.20;;;;;;5012584;28;20083;-58
2022/07/27 11:36:57;;;;;;;5.15;0.60;;;25.20;93.20;;;;;;5003703;28;20533;-58
2022/07/27 11:39:27;;;;;;;1.30;0.63;;;25.30;93.10;;;;;;5010571;28;20494;-58
2022/07/27 11:41:58;;;;;;;1.95;0.70;;;25.70;91.60;;;;;;5002957;28;20490;-58
2022/07/27 11:44:24;;;;;;;3.60;1.13;;;26.30;89.70;;;;;;5010823;28;20049;-58
2022/07/27 11:46:51;;;;;;;1.63;0.47;;;26.70;90.30;;;;;;5008027;28;20025;-58
2022/07/27 11:49:27;;;;;;;2.50;0.60;;;26.90;85.80;;;;;;5014907;28;20443;-58
2022/07/27 11:52:15;;;;;;;4.93;1.10;;;26.80;85.30;;;;;;5004795;28;20030;-58
2022/07/27 11:54:40;;;;;;;2.65;0.60;;;27.00;85.90;;;;;;5014180;28;20034;-58
2022/07/27 11:57:09;;;;;;;8.75;1.33;;;27.20;81.80;;;;;;5004081;28;20073;-58
2022/07/27 11:59:45;;;;;;;3.60;0.70;;;27.30;80.90;;;;;;5007945;28;20029;-60
2022/07/27 12:02:18;;;;;;;3.08;0.85;;;27.70;79.80;;;;;;5006254;28;20043;-59
2022/07/27 12:04:49;;;;;;;2.88;0.70;;;27.70;79.80;;;;;;5012934;28;20029;-58
2022/07/27 12:07:20;;;;;;;1.63;0.50;;;27.40;76.70;;;;;;5008491;28;20030;-59
2022/07/27 12:09:53;;;;;;;0.95;0.60;;;27.10;76.50;;;;;;5000217;28;20026;-59
2022/07/27 12:12:22;;;;;;;2.03;0.65;;;27.20;77.60;;;;;;5008648;28;20506;-59
2022/07/27 12:14:50;;;;;;;2.28;0.88;;;27.10;78.50;;;;;;5007237;28;20073;-57
2022/07/27 12:17:24;;;;;;;4.03;1.05;;;27.20;78.50;;;;;;5001559;28;20108;-58
2022/07/27 12:19:57;;;;;;;2.70;1.10;;;27.50;74.90;;;;;;5009624;28;20033;-58
2022/07/27 12:22:34;;;;;;;2.70;0.77;;;27.80;72.90;;;;;;5011631;28;20036;-59
2022/07/27 12:25:06;;;;;;;4.32;1.02;;;28.00;72.00;;;;;;4999948;28;20034;-58
2022/07/27 12:27:32;;;;;;;;;;;28.20;70.50;;;;;;5019629;28;20070;-58
2022/07/27 12:30:08;;;;;;;4.28;1.38;;;28.30;67.30;;;;;;4999757;28;19917;-61
2022/07/27 12:32:37;;;;;;;8.13;0.90;;;28.40;67.00;;;;;;5008112;28;20032;-58
2022/07/27 12:35:16;;;;;;;3.00;0.70;;;28.00;65.40;;;;;;5012327;28;20028;-57
2022/07/27 12:37:42;;;;;;;2.20;0.70;;;27.40;67.10;;;;;;5005595;28;20068;-58
2022/07/27 12:40:17;;;;;;;3.45;0.80;;;27.20;69.60;;;;;;5009099;28;20050;-58
2022/07/27 12:42:45;;;;;;;3.22;0.98;;;27.20;67.70;;;;;;5010932;28;20118;-58
2022/07/27 12:45:17;;;;;;;7.95;0.80;;;27.20;69.50;;;;;;5003473;28;20038;-58
2022/07/27 12:47:43;;;;;;;3.38;0.68;;;26.80;67.50;;;;;;5007777;28;20080;-58
2022/07/27 12:50:15;;;;;;;2.35;1.00;;;26.30;66.90;;;;;;5007644;28;20182;-59
2022/07/27 12:52:49;;;;;;;2.88;0.85;;;26.60;67.30;;;;;;5003058;28;20040;-59
2022/07/27 12:55:16;;;;;;;1.95;0.98;;;26.90;67.00;;;;;;5006614;28;20064;-58